Time;durP1;ratioP1;P1;durP2;ratioP2;P2;SDS_P1;SDS_P2;PMS_P1;PMS_P2;Temp;Humidity;BMP_temperature;BMP_pressure;BME280_temperature;BME280_humidity;BME280_pressure;Samples;Min_cycle;Max_cycle;Signal;HPM_P1;HPM_P2
2022/04/19 00:00:20;;;;;;;16.50;12.75;;;6.30;99.90;;;;;;5014227;28;20065;-74
2022/04/19 00:02:48;;;;;;;18.67;12.70;;;6.30;99.90;;;;;;5030438;28;20048;-73
2022/04/19 00:05:14;;;;;;;17.20;13.68;;;6.30;99.90;;;;;;5030132;28;20038;-74
2022/04/19 00:07:41;;;;;;;17.65;13.10;;;6.30;99.90;;;;;;5030007;28;20048;-73
2022/04/19 00:10:08;;;;;;;15.88;12.80;;;6.20;99.90;;;;;;5013671;28;20092;-73
2022/04/19 00:12:34;;;;;;;16.05;12.75;;;6.20;99.90;;;;;;4995014;28;20077;-73
2022/04/19 00:15:00;;;;;;;19.48;12.20;;;6.10;99.90;;;;;;4994615;28;20160;-73
2022/04/19 00:17:26;;;;;;;16.98;12.98;;;6.10;99.90;;;;;;4995100;28;20034;-73
2022/04/19 00:19:52;;;;;;;18.45;12.60;;;6.10;99.90;;;;;;4994103;28;20038;-74
2022/04/19 00:22:17;;;;;;;17.75;12.50;;;6.00;99.90;;;;;;5002174;28;20044;-74
2022/04/19 00:24:43;;;;;;;17.35;13.40;;;6.00;99.90;;;;;;5012051;28;20095;-73
2022/04/19 00:27:09;;;;;;;16.35;12.65;;;6.00;99.90;;;;;;4994181;28;20131;-74
2022/04/19 00:29:35;;;;;;;17.75;13.15;;;6.00;99.90;;;;;;4994086;28;20078;-74
2022/04/19 00:32:01;;;;;;;18.98;13.35;;;5.90;99.90;;;;;;4993883;28;20455;-74
2022/04/19 00:34:27;;;;;;;19.13;12.77;;;5.90;99.90;;;;;;5011548;28;20508;-73
2022/04/19 00:36:53;;;;;;;18.27;12.00;;;5.90;99.90;;;;;;5012874;28;20040;-73
2022/04/19 00:39:18;;;;;;;17.15;12.20;;;5.80;99.90;;;;;;5003896;28;20407;-73
2022/04/19 00:41:44;;;;;;;19.02;12.70;;;5.80;99.90;;;;;;4994126;28;20038;-73
2022/04/19 00:44:11;;;;;;;15.88;11.60;;;5.80;99.90;;;;;;4993995;28;20041;-73
2022/04/19 00:46:36;;;;;;;16.23;11.65;;;5.70;99.90;;;;;;5010396;28;20085;-73
2022/04/19 00:49:02;;;;;;;15.80;11.82;;;5.70;99.90;;;;;;5010404;28;20080;-73
2022/04/19 00:51:29;;;;;;;16.00;11.52;;;5.60;99.90;;;;;;4994001;28;20104;-74
2022/04/19 00:53:55;;;;;;;15.60;11.75;;;5.60;99.90;;;;;;5010851;28;20048;-73
2022/04/19 00:56:21;;;;;;;15.05;12.05;;;5.60;99.90;;;;;;4993988;28;20038;-73
2022/04/19 00:58:47;;;;;;;15.30;11.60;;;5.50;99.90;;;;;;4993772;28;20084;-73
2022/04/19 01:01:15;;;;;;;14.57;11.05;;;5.50;99.90;;;;;;5026629;28;20038;-73
2022/04/19 01:03:46;;;;;;;13.07;10.10;;;5.50;99.90;;;;;;4993463;28;20073;-73
2022/04/19 01:06:11;;;;;;;13.88;10.57;;;5.40;99.90;;;;;;5028841;28;21334;-73
2022/04/19 01:08:38;;;;;;;12.55;11.15;;;5.30;99.90;;;;;;4999131;28;20076;-73
2022/04/19 01:13:49;;;;;;;13.88;10.82;;;5.30;99.90;;;;;;5029773;28;20049;-73
2022/04/19 01:16:16;;;;;;;14.55;11.20;;;5.20;99.90;;;;;;5011892;28;20772;-73
2022/04/19 01:18:45;;;;;;;14.15;11.15;;;5.20;99.90;;;;;;5027457;28;20411;-73
2022/04/19 01:21:11;;;;;;;16.92;11.85;;;5.00;99.90;;;;;;5028350;28;20128;-73
2022/04/19 01:23:39;;;;;;;15.32;11.88;;;5.10;99.90;;;;;;4997147;28;20068;-73
2022/04/19 01:26:06;;;;;;;15.15;12.02;;;5.10;99.90;;;;;;4997137;28;20045;-73
2022/04/19 01:28:32;;;;;;;14.45;11.93;;;5.00;99.90;;;;;;4997350;28;20504;-73
2022/04/19 01:30:59;;;;;;;14.68;11.43;;;5.00;99.90;;;;;;5017492;28;20077;-73
2022/04/19 01:33:24;;;;;;;12.93;10.45;;;4.90;99.90;;;;;;5032593;28;20249;-73
2022/04/19 01:35:53;;;;;;;11.95;9.65;;;4.90;99.90;;;;;;5026595;28;20038;-73
2022/04/19 01:38:19;;;;;;;13.45;10.82;;;4.80;99.90;;;;;;5001844;28;20048;-73
2022/04/19 01:40:44;;;;;;;12.57;10.77;;;4.80;99.90;;;;;;5035971;28;20041;-73
2022/04/19 01:43:10;;;;;;;11.95;9.70;;;4.70;99.90;;;;;;5031694;28;20120;-73
2022/04/19 01:45:36;;;;;;;13.38;10.63;;;4.70;99.90;;;;;;5016570;28;20042;-73
2022/04/19 01:48:02;;;;;;;13.60;10.93;;;4.70;99.90;;;;;;5014603;28;20466;-73
2022/04/19 01:50:29;;;;;;;13.23;10.48;;;4.70;99.90;;;;;;4996843;28;20558;-73
2022/04/19 01:52:58;;;;;;;12.70;9.95;;;4.60;99.90;;;;;;5002874;28;20057;-73
2022/04/19 01:55:24;;;;;;;13.40;10.18;;;4.70;99.90;;;;;;5015994;28;20045;-73
2022/04/19 01:57:58;;;;;;;13.85;11.00;;;4.70;99.90;;;;;;5016488;28;20033;-73
2022/04/19 02:00:25;;;;;;;12.85;10.40;;;4.70;99.90;;;;;;5015888;28;20403;-73
2022/04/19 02:02:54;;;;;;;11.85;10.45;;;4.80;99.90;;;;;;5000123;28;20127;-73
2022/04/19 02:05:19;;;;;;;12.70;10.38;;;4.80;99.90;;;;;;5013258;28;20137;-74
2022/04/19 02:07:46;;;;;;;12.02;9.85;;;4.80;99.90;;;;;;5008366;28;20128;-73
2022/04/19 02:10:14;;;;;;;12.95;10.43;;;4.80;99.90;;;;;;5014590;28;20088;-73
2022/04/19 02:12:40;;;;;;;12.48;10.60;;;4.90;99.90;;;;;;5028862;28;20406;-73
2022/04/19 02:15:07;;;;;;;12.88;10.95;;;4.90;99.90;;;;;;5032377;28;20092;-73
2022/04/19 02:17:34;;;;;;;12.82;10.07;;;4.90;99.90;;;;;;5015922;28;20120;-73
2022/04/19 02:20:01;;;;;;;13.60;11.13;;;4.80;99.90;;;;;;5026321;28;20030;-73
2022/04/19 02:22:27;;;;;;;19.48;10.70;;;4.80;99.90;;;;;;5013833;28;20048;-73
2022/04/19 02:24:55;;;;;;;12.18;10.23;;;4.70;99.90;;;;;;4996150;28;20161;-73
2022/04/19 02:27:21;;;;;;;13.10;10.48;;;4.60;99.90;;;;;;4995830;28;20073;-73
2022/04/19 02:29:47;;;;;;;13.27;9.55;;;4.50;99.90;;;;;;4995744;28;20046;-73
2022/04/19 02:32:13;;;;;;;13.07;10.73;;;4.50;99.90;;;;;;5007672;28;20068;-73
2022/04/19 02:34:42;;;;;;;12.82;10.57;;;4.40;99.90;;;;;;5012492;28;20091;-73
2022/04/19 02:37:07;;;;;;;14.32;10.90;;;4.30;99.90;;;;;;4995770;28;20030;-73
2022/04/19 02:39:33;;;;;;;14.07;10.82;;;4.30;99.90;;;;;;4995853;28;20399;-73
2022/04/19 02:41:59;;;;;;;15.13;10.95;;;4.20;99.90;;;;;;5007120;28;20087;-73
2022/04/19 02:44:25;;;;;;;12.77;10.20;;;4.20;99.90;;;;;;5010647;28;20045;-74
2022/04/19 02:46:50;;;;;;;13.25;10.30;;;4.10;99.90;;;;;;5015470;28;20037;-73
2022/04/19 02:49:16;;;;;;;12.23;10.20;;;4.00;99.90;;;;;;5008538;28;20099;-73
2022/04/19 02:51:44;;;;;;;12.88;11.05;;;4.00;99.90;;;;;;4999253;28;20038;-73
2022/04/19 02:54:13;;;;;;;12.75;11.30;;;4.00;99.90;;;;;;4995546;28;20050;-73
2022/04/19 02:56:38;;;;;;;12.27;10.63;;;3.90;99.90;;;;;;4995548;28;20041;-73
2022/04/19 02:59:04;;;;;;;12.88;10.32;;;3.80;99.90;;;;;;5028252;28;20511;-73
2022/04/19 03:01:30;;;;;;;12.90;10.75;;;3.80;99.90;;;;;;5020832;28;20049;-73
2022/04/19 03:03:57;;;;;;;13.57;10.23;;;3.80;99.90;;;;;;4999963;28;20133;-73
2022/04/19 03:06:23;;;;;;;13.32;10.00;;;3.70;99.90;;;;;;4995761;28;20128;-73
2022/04/19 03:08:49;;;;;;;12.65;10.65;;;3.60;99.90;;;;;;5004130;28;20485;-72
2022/04/19 03:11:15;;;;;;;14.15;10.80;;;3.70;99.90;;;;;;5022348;28;20046;-73
2022/04/19 03:13:42;;;;;;;14.02;12.23;;;3.60;99.90;;;;;;5012155;28;20041;-73
2022/04/19 03:16:15;;;;;;;13.05;10.73;;;3.60;99.90;;;;;;4995926;28;20077;-73
2022/04/19 03:18:47;;;;;;;14.07;11.25;;;3.60;99.90;;;;;;4995533;28;20399;-72
2022/04/19 03:21:13;;;;;;;14.20;11.45;;;3.60;99.90;;;;;;4995419;28;20489;-72
2022/04/19 03:29:11;;;;;;;15.23;12.73;;;3.50;99.90;;;;;;5011255;28;20060;-73
2022/04/19 03:31:36;;;;;;;16.45;13.00;;;3.50;99.90;;;;;;5005814;28;20055;-73
2022/04/19 03:34:03;;;;;;;16.30;12.55;;;3.50;99.90;;;;;;5031397;28;20409;-73
2022/04/19 03:36:29;;;;;;;14.52;11.75;;;3.50;99.90;;;;;;5014770;28;20045;-73
2022/04/19 03:38:55;;;;;;;13.93;11.10;;;3.50;99.90;;;;;;5025095;28;20373;-72
2022/04/19 03:41:21;;;;;;;13.38;11.10;;;3.40;99.90;;;;;;4994735;28;20049;-72
2022/04/19 03:43:51;;;;;;;13.75;11.18;;;3.40;99.90;;;;;;5012460;28;20081;-72
2022/04/19 03:46:17;;;;;;;14.65;11.40;;;3.30;99.90;;;;;;5011312;28;20060;-72
2022/04/19 03:48:46;;;;;;;15.88;11.77;;;3.30;99.90;;;;;;5010892;28;20065;-72
2022/04/19 03:51:11;;;;;;;16.08;11.50;;;3.20;99.90;;;;;;4995145;28;20116;-73
2022/04/19 03:53:37;;;;;;;12.65;11.32;;;3.20;99.90;;;;;;5027539;28;20133;-72
2022/04/19 03:56:06;;;;;;;18.60;13.20;;;3.20;99.90;;;;;;5027773;28;20038;-72
2022/04/19 03:58:32;;;;;;;14.45;11.43;;;3.20;99.90;;;;;;4994661;28;20030;-72
2022/04/19 04:00:59;;;;;;;14.70;11.55;;;3.10;99.90;;;;;;4994948;28;20038;-72
2022/04/19 04:03:25;;;;;;;14.00;10.77;;;3.10;99.90;;;;;;4994506;28;20046;-72
2022/04/19 04:05:50;;;;;;;13.73;12.25;;;3.10;99.90;;;;;;5008621;28;20034;-72
2022/04/19 04:08:16;;;;;;;14.65;11.55;;;3.00;99.90;;;;;;5013731;28;20037;-72
2022/04/19 04:10:42;;;;;;;15.25;11.50;;;3.00;99.90;;;;;;5014088;28;20437;-72
2022/04/19 04:13:09;;;;;;;15.85;12.63;;;3.00;99.90;;;;;;5009128;28;20038;-72
2022/04/19 04:15:34;;;;;;;14.27;11.23;;;3.00;99.90;;;;;;4994434;28;20041;-72
2022/04/19 04:18:00;;;;;;;14.90;11.65;;;3.10;99.90;;;;;;4994516;28;20125;-72
2022/04/19 04:20:26;;;;;;;15.45;12.43;;;3.10;99.90;;;;;;5006519;28;20103;-72
2022/04/19 04:22:51;;;;;;;14.65;12.20;;;3.10;99.90;;;;;;5014141;28;20115;-72
2022/04/19 04:25:17;;;;;;;14.40;11.73;;;3.10;99.90;;;;;;5006898;28;20045;-72
2022/04/19 04:27:42;;;;;;;16.73;12.90;;;3.20;99.90;;;;;;5010886;28;20038;-72
2022/04/19 04:30:08;;;;;;;15.63;12.38;;;3.10;99.90;;;;;;5006472;28;20041;-72
2022/04/19 04:32:34;;;;;;;13.70;11.82;;;3.10;99.90;;;;;;5014125;28;20095;-72
2022/04/19 04:34:59;;;;;;;17.35;12.07;;;3.10;99.90;;;;;;5030408;28;20039;-72
2022/04/19 04:37:25;;;;;;;14.90;11.65;;;3.10;99.90;;;;;;5013834;28;20100;-72
2022/04/19 04:39:51;;;;;;;15.73;11.85;;;3.00;99.90;;;;;;5030409;28;20042;-72
2022/04/19 04:42:17;;;;;;;15.07;11.52;;;3.00;99.90;;;;;;5030361;28;20052;-72
2022/04/19 04:44:42;;;;;;;16.23;12.20;;;3.00;99.90;;;;;;5014384;28;20045;-72
2022/04/19 04:50:13;;;;;;;15.25;12.07;;;3.00;99.90;;;;;;4992756;28;20721;-72
2022/04/19 04:52:39;;;;;;;16.48;12.30;;;3.10;99.90;;;;;;4991925;28;20508;-72
2022/04/19 04:55:05;;;;;;;14.55;11.85;;;3.00;99.90;;;;;;4987080;28;20096;-72
2022/04/19 04:57:31;;;;;;;14.07;11.00;;;3.00;99.90;;;;;;5030699;28;20100;-72
2022/04/19 04:59:57;;;;;;;15.68;11.93;;;3.00;99.90;;;;;;5030516;28;20041;-72
2022/04/19 05:02:23;;;;;;;16.13;11.98;;;3.00;99.90;;;;;;5004547;28;20050;-72
2022/04/19 05:04:49;;;;;;;16.83;12.50;;;3.00;99.90;;;;;;5017267;28;20086;-73
2022/04/19 05:07:15;;;;;;;17.92;12.43;;;3.00;99.90;;;;;;5015675;28;20029;-72
2022/04/19 05:09:46;;;;;;;15.60;13.07;;;3.00;99.90;;;;;;5016928;28;20499;-72
2022/04/19 05:12:14;;;;;;;16.13;12.40;;;3.10;99.90;;;;;;5004525;28;20124;-72
2022/04/19 05:14:40;;;;;;;19.67;14.40;;;3.10;99.90;;;;;;5002115;28;20120;-72
2022/04/19 05:17:05;;;;;;;18.80;13.05;;;3.10;99.90;;;;;;5008435;28;20613;-72
2022/04/19 05:19:31;;;;;;;18.65;13.93;;;3.20;99.90;;;;;;5032174;28;20064;-72
2022/04/19 05:21:56;;;;;;;18.00;13.55;;;3.20;99.90;;;;;;5017403;28;20479;-74
2022/04/19 05:24:22;;;;;;;17.45;13.60;;;3.20;99.90;;;;;;5016571;28;20415;-74
2022/04/19 05:26:48;;;;;;;18.58;13.90;;;3.30;99.90;;;;;;5012152;28;20037;-74
2022/04/19 05:29:18;;;;;;;18.55;13.77;;;3.40;99.90;;;;;;4997828;28;20102;-74
2022/04/19 05:31:44;;;;;;;17.25;13.10;;;3.40;99.90;;;;;;4997615;28;20042;-76
2022/04/19 05:34:10;;;;;;;18.42;14.35;;;3.50;99.90;;;;;;5002775;28;20034;-72
2022/04/19 05:36:47;;;;;;;18.83;14.20;;;3.60;99.90;;;;;;5020755;28;20049;-73
2022/04/19 05:39:15;;;;;;;17.23;13.38;;;3.70;99.90;;;;;;5016727;28;20045;-73
2022/04/19 05:41:49;;;;;;;17.88;13.70;;;3.60;99.90;;;;;;5033315;28;20514;-72
2022/04/19 05:44:14;;;;;;;18.98;14.77;;;3.70;99.90;;;;;;5032593;28;20048;-72
2022/04/19 05:46:40;;;;;;;22.40;14.95;;;3.80;99.90;;;;;;5001162;28;20416;-72
2022/04/19 05:49:05;;;;;;;23.52;16.45;;;4.00;99.90;;;;;;5044500;28;20041;-72
2022/04/19 05:51:37;;;;;;;20.58;13.88;;;4.10;99.90;;;;;;5015298;28;20417;-72
2022/04/19 05:54:02;;;;;;;18.50;14.27;;;4.20;99.90;;;;;;5014540;28;20037;-72
2022/04/19 05:56:33;;;;;;;19.50;14.02;;;4.50;99.90;;;;;;5016462;28;20474;-74
2022/04/19 05:59:08;;;;;;;18.33;12.98;;;5.00;99.90;;;;;;5015691;28;20029;-77
2022/04/19 06:10:19;;;;;;;18.70;13.27;;;6.60;99.90;;;;;;5031889;28;20045;-75
2022/04/19 06:12:52;;;;;;;21.52;14.02;;;6.70;99.90;;;;;;5013120;28;20049;-75
2022/04/19 06:15:31;;;;;;;19.38;14.13;;;6.90;99.90;;;;;;5014624;28;20100;-74
2022/04/19 06:17:59;;;;;;;20.67;14.07;;;7.20;99.90;;;;;;5016064;28;20499;-75
2022/04/19 06:20:31;;;;;;;17.15;13.02;;;7.30;99.90;;;;;;5013004;28;20057;-75
2022/04/19 06:23:08;;;;;;;21.02;12.82;;;7.50;99.90;;;;;;5000293;28;20129;-73
2022/04/19 06:25:59;;;;;;;17.10;13.05;;;7.70;99.90;;;;;;4997660;28;20099;-72
2022/04/19 06:28:31;;;;;;;19.77;13.07;;;7.80;99.90;;;;;;4999071;28;20388;-73
2022/04/19 06:30:56;;;;;;;16.85;13.40;;;8.00;99.90;;;;;;5012834;28;20407;-73
2022/04/19 06:33:25;;;;;;;17.58;13.20;;;8.10;99.90;;;;;;5011806;28;20042;-72
2022/04/19 06:35:50;;;;;;;20.20;13.38;;;8.30;99.90;;;;;;5030905;28;20408;-73
2022/04/19 06:38:16;;;;;;;17.45;13.13;;;8.40;99.90;;;;;;5014364;28;20046;-73
2022/04/19 06:40:45;;;;;;;18.63;13.15;;;8.50;99.90;;;;;;5014906;28;20129;-73
2022/04/19 06:43:11;;;;;;;16.33;12.68;;;8.80;99.90;;;;;;5015212;28;20091;-73
2022/04/19 06:45:37;;;;;;;23.90;13.50;;;9.10;99.90;;;;;;5015289;28;20447;-73
2022/04/19 06:48:05;;;;;;;16.48;12.80;;;9.20;99.90;;;;;;4995126;28;20033;-74
2022/04/19 06:50:36;;;;;;;15.90;12.40;;;9.30;99.90;;;;;;5011982;28;20046;-73
2022/04/19 06:53:04;;;;;;;16.20;12.38;;;9.40;99.90;;;;;;5011679;28;20492;-73
2022/04/19 06:55:38;;;;;;;18.35;12.45;;;9.50;99.90;;;;;;5011371;28;20065;-74
2022/04/19 06:58:09;;;;;;;16.17;12.20;;;9.60;99.90;;;;;;4995562;28;20046;-74
2022/04/19 07:00:37;;;;;;;18.42;12.68;;;9.80;99.90;;;;;;4994884;28;20053;-74
2022/04/19 07:03:05;;;;;;;15.52;12.20;;;9.80;99.90;;;;;;4995469;28;20132;-74
2022/04/19 07:05:31;;;;;;;16.27;13.10;;;9.90;99.90;;;;;;5011483;28;20041;-74
2022/04/19 07:08:03;;;;;;;18.83;13.38;;;10.10;99.90;;;;;;4995351;28;20436;-74
2022/04/19 07:10:31;;;;;;;20.52;13.77;;;10.20;99.90;;;;;;5011738;28;20049;-74
2022/04/19 07:13:06;;;;;;;18.17;14.30;;;10.30;99.90;;;;;;5011316;28;20104;-74
2022/04/19 07:15:32;;;;;;;16.15;11.32;;;10.40;99.90;;;;;;5012931;28;20033;-74
2022/04/19 07:18:00;;;;;;;17.63;11.02;;;10.60;99.90;;;;;;4994512;28;20033;-74
2022/04/19 07:28:38;;;;;;;14.57;9.07;;;11.20;99.90;;;;;;5007688;28;20188;-74
2022/04/19 07:31:05;;;;;;;12.00;8.90;;;11.30;99.90;;;;;;4975636;28;20132;-74
2022/04/19 07:33:38;;;;;;;13.00;8.80;;;11.50;98.90;;;;;;4986346;28;20400;-74
2022/04/19 07:36:07;;;;;;;13.27;9.23;;;11.60;98.90;;;;;;4975493;28;20114;-74
2022/04/19 07:38:36;;;;;;;11.52;8.00;;;11.70;98.00;;;;;;5024263;28;20031;-74
2022/04/19 07:41:02;;;;;;;10.70;8.00;;;11.90;96.60;;;;;;5024284;28;20034;-74
2022/04/19 07:43:33;;;;;;;14.32;9.13;;;12.00;96.40;;;;;;5007888;28;20043;-74
2022/04/19 07:45:58;;;;;;;12.10;9.27;;;12.00;97.40;;;;;;4975094;28;20038;-74
2022/04/19 07:48:30;;;;;;;12.90;9.02;;;12.20;97.60;;;;;;5010152;28;20411;-74
2022/04/19 07:51:06;;;;;;;12.98;8.88;;;12.30;96.90;;;;;;4994523;28;20042;-74
2022/04/19 07:53:31;;;;;;;12.73;9.18;;;12.40;95.60;;;;;;4994402;28;20037;-74
2022/04/19 07:55:57;;;;;;;13.27;7.80;;;12.60;95.00;;;;;;4994332;28;20088;-74
2022/04/19 07:58:26;;;;;;;11.57;8.27;;;12.70;93.90;;;;;;4994129;28;20033;-74
2022/04/19 08:00:59;;;;;;;10.50;8.02;;;12.90;92.20;;;;;;4978990;28;20050;-74
2022/04/19 08:03:37;;;;;;;10.40;7.68;;;13.00;90.50;;;;;;4994454;28;20044;-74
2022/04/19 08:06:07;;;;;;;12.23;8.13;;;13.20;85.60;;;;;;4994461;28;20048;-74
2022/04/19 08:08:43;;;;;;;10.80;7.20;;;13.30;83.50;;;;;;4994158;28;20076;-74
2022/04/19 08:11:14;;;;;;;9.82;6.78;;;13.40;78.80;;;;;;4994763;28;20058;-74
2022/04/19 08:13:47;;;;;;;10.90;7.07;;;13.50;75.30;;;;;;4983198;28;20511;-74
2022/04/19 08:16:22;;;;;;;10.10;6.38;;;13.60;75.70;;;;;;4973793;28;20106;-74
2022/04/19 08:18:51;;;;;;;11.57;7.72;;;13.70;79.90;;;;;;5007677;28;20042;-74
2022/04/19 08:21:19;;;;;;;11.60;7.13;;;13.90;83.30;;;;;;5023628;28;20505;-74
2022/04/19 08:23:50;;;;;;;11.02;6.60;;;14.00;75.10;;;;;;5023491;28;20578;-74
2022/04/19 08:26:16;;;;;;;9.43;6.18;;;14.20;71.20;;;;;;5010437;28;20077;-74
2022/04/19 08:28:47;;;;;;;9.95;6.70;;;14.40;73.30;;;;;;4997826;28;20129;-74
2022/04/19 08:31:13;;;;;;;10.15;6.93;;;15.10;70.20;;;;;;4998477;28;20041;-74
2022/04/19 08:33:39;;;;;;;9.70;6.35;;;15.70;65.30;;;;;;4997792;28;20053;-74
2022/04/19 08:36:07;;;;;;;11.10;6.97;;;16.10;63.70;;;;;;4997849;28;20038;-75
2022/04/19 08:38:43;;;;;;;10.43;6.25;;;16.50;63.00;;;;;;4993571;28;20038;-75
2022/04/19 08:41:18;;;;;;;9.70;6.32;;;17.00;59.70;;;;;;5011498;28;20096;-75
2022/04/19 08:43:52;;;;;;;9.85;6.13;;;17.40;56.60;;;;;;5011573;28;20405;-75
2022/04/19 08:46:20;;;;;;;8.57;5.90;;;17.70;56.30;;;;;;5010967;28;20097;-75
2022/04/19 08:48:59;;;;;;;9.07;5.80;;;18.10;53.00;;;;;;4994553;28;20053;-75
2022/04/19 08:51:27;;;;;;;9.38;5.82;;;18.20;52.00;;;;;;5011295;28;20039;-75
2022/04/19 08:59:35;;;;;;;8.30;5.43;;;18.70;50.50;;;;;;4995119;28;20046;-75
2022/04/19 09:02:08;;;;;;;6.93;5.10;;;18.70;50.60;;;;;;4995516;28;20404;-75
2022/04/19 09:04:34;;;;;;;6.60;4.78;;;18.70;51.60;;;;;;5036767;22;20324;-77
2022/04/19 09:07:00;;;;;;;7.30;4.88;;;18.80;51.30;;;;;;5033630;28;20087;-76
2022/04/19 09:09:32;;;;;;;6.93;4.70;;;19.00;50.70;;;;;;5028854;28;20061;-76
2022/04/19 09:12:16;;;;;;;9.02;4.88;;;19.10;51.30;;;;;;5030077;28;20459;-76
2022/04/19 09:15:06;;;;;;;9.38;4.97;;;19.30;50.90;;;;;;5032802;28;20060;-76
2022/04/19 09:17:42;;;;;;;6.95;4.80;;;19.60;49.40;;;;;;5007025;28;20064;-75
2022/04/19 09:20:18;;;;;;;5.90;4.60;;;19.70;49.10;;;;;;5012926;28;20073;-75
2022/04/19 09:22:50;;;;;;;7.28;5.07;;;19.80;48.00;;;;;;5048571;28;20042;-75
2022/04/19 09:25:17;;;;;;;6.28;5.30;;;19.60;49.50;;;;;;5030518;28;20487;-75
2022/04/19 09:27:44;;;;;;;7.13;4.90;;;19.70;51.20;;;;;;5022622;28;20503;-75
2022/04/19 09:30:17;;;;;;;5.82;4.57;;;20.10;47.50;;;;;;5013367;28;20521;-75
2022/04/19 09:32:59;;;;;;;6.65;5.30;;;19.90;48.40;;;;;;5001869;28;20050;-76
2022/04/19 09:35:36;;;;;;;7.50;5.40;;;19.90;48.00;;;;;;5024149;28;20033;-74
2022/04/19 09:38:03;;;;;;;7.53;5.20;;;20.00;48.30;;;;;;5026446;28;20042;-73
2022/04/19 09:40:41;;;;;;;8.00;5.10;;;19.80;49.20;;;;;;5031082;28;20041;-73
2022/04/19 09:43:24;;;;;;;8.43;5.60;;;20.00;48.30;;;;;;5047270;28;20045;-74
2022/04/19 09:45:58;;;;;;;6.77;5.40;;;20.20;48.50;;;;;;5019058;28;20470;-74
2022/04/19 09:48:27;;;;;;;6.70;5.32;;;20.10;48.00;;;;;;5028840;28;20133;-73
2022/04/19 09:51:04;;;;;;;8.43;5.97;;;20.00;50.20;;;;;;5013093;28;20038;-74
2022/04/19 09:53:42;;;;;;;7.43;6.05;;;20.20;47.80;;;;;;5030438;28;20033;-74
2022/04/19 09:56:13;;;;;;;7.28;5.53;;;20.20;48.40;;;;;;5012090;28;20217;-74
2022/04/19 09:58:41;;;;;;;6.75;5.28;;;20.40;47.00;;;;;;5027612;28;20036;-75
2022/04/19 10:01:07;;;;;;;4.68;3.50;;;20.10;47.80;;;;;;5032502;28;20034;-74
2022/04/19 10:09:05;;;;;;;6.47;5.00;;;19.80;46.30;;;;;;5012822;28;20045;-74
2022/04/19 10:11:31;;;;;;;6.47;5.50;;;19.80;47.30;;;;;;5012835;28;20038;-74
2022/04/19 10:13:58;;;;;;;8.10;4.80;;;20.20;48.00;;;;;;5032008;28;20550;-74
2022/04/19 10:16:27;;;;;;;5.63;4.68;;;20.40;47.00;;;;;;5032670;28;20041;-74
2022/04/19 10:18:52;;;;;;;5.22;4.07;;;20.20;46.20;;;;;;5048568;28;20092;-73
2022/04/19 10:21:28;;;;;;;5.15;3.50;;;20.10;46.10;;;;;;5032325;28;20557;-74
2022/04/19 10:24:10;;;;;;;3.10;2.80;;;20.10;45.40;;;;;;5012466;28;20108;-73
2022/04/19 10:26:48;;;;;;;3.95;2.85;;;20.10;44.10;;;;;;5012495;28;20049;-74
2022/04/19 10:29:25;;;;;;;3.25;2.20;;;20.00;44.50;;;;;;5032078;28;20041;-75
2022/04/19 10:32:06;;;;;;;3.70;2.50;;;19.90;44.60;;;;;;5031686;28;20041;-75
2022/04/19 10:34:37;;;;;;;3.47;2.42;;;19.80;44.90;;;;;;5004169;28;20029;-78
2022/04/19 10:37:12;;;;;;;4.15;2.40;;;19.90;44.80;;;;;;5030514;28;20038;-76
2022/04/19 10:39:45;;;;;;;3.28;2.33;;;20.10;44.80;;;;;;5032278;28;20045;-76
2022/04/19 10:42:37;;;;;;;3.80;2.47;;;20.40;43.50;;;;;;5014366;28;20041;-76
2022/04/19 10:45:12;;;;;;;4.90;2.67;;;20.30;43.30;;;;;;4995809;28;20052;-75
2022/04/19 10:47:53;;;;;;;4.13;2.60;;;20.40;42.80;;;;;;5027266;28;20049;-76
2022/04/19 10:50:36;;;;;;;4.38;2.40;;;20.30;44.50;;;;;;5014646;28;20045;-78
2022/04/19 10:53:09;;;;;;;3.55;2.58;;;20.70;41.90;;;;;;5011584;28;20034;-77
2022/04/19 10:55:58;;;;;;;3.70;1.90;;;20.90;40.20;;;;;;5028230;28;20060;-76
2022/04/19 10:58:44;;;;;;;3.72;2.42;;;20.70;40.80;;;;;;5014775;28;20099;-77
2022/04/19 11:01:31;;;;;;;3.53;2.38;;;20.80;40.10;;;;;;5031404;28;20034;-77
2022/04/19 11:03:57;;;;;;;4.07;2.60;;;21.20;37.50;;;;;;5031312;28;20053;-77
2022/04/19 11:06:34;;;;;;;3.60;2.55;;;20.90;39.40;;;;;;5031578;28;20120;-76
2022/04/19 11:09:15;;;;;;;3.80;2.85;;;20.90;40.00;;;;;;5030570;28;20033;-77
2022/04/19 11:11:45;;;;;;;2.97;2.45;;;20.80;40.10;;;;;;5015029;28;20038;-77
2022/04/19 11:14:36;;;;;;;2.33;1.80;;;20.90;38.70;;;;;;5027789;28;20034;-77
2022/04/19 11:17:21;;;;;;;4.68;2.30;;;21.00;38.50;;;;;;5012533;28;20502;-76
2022/04/19 11:19:54;;;;;;;3.20;2.42;;;21.20;38.20;;;;;;5026988;28;20073;-76
2022/04/19 11:22:29;;;;;;;2.10;1.90;;;21.20;39.00;;;;;;5030805;28;20052;-77
2022/04/19 11:25:03;;;;;;;3.92;1.48;;;21.10;37.20;;;;;;5013834;28;20125;-77
2022/04/19 11:27:54;;;;;;;2.17;1.15;;;20.90;36.10;;;;;;5028610;28;20037;-76
2022/04/19 11:30:25;;;;;;;1.50;1.20;;;20.70;36.20;;;;;;5029592;28;20048;-76
2022/04/19 11:32:52;;;;;;;1.45;1.10;;;20.70;37.10;;;;;;5028170;28;20064;-76
2022/04/19 11:35:19;;;;;;;6.70;1.58;;;21.00;36.40;;;;;;5030126;28;20051;-76
2022/04/19 11:37:45;;;;;;;3.05;1.70;;;21.00;37.70;;;;;;5027066;28;20034;-76
2022/04/19 11:48:44;;;;;;;2.90;2.00;;;21.20;40.00;;;;;;5030570;28;20048;-77
2022/04/19 11:51:12;;;;;;;2.70;2.00;;;21.40;40.20;;;;;;5014127;28;20479;-76
2022/04/19 11:53:38;;;;;;;2.63;2.00;;;21.60;38.50;;;;;;5030557;28;20042;-76
2022/04/19 11:56:06;;;;;;;2.92;1.88;;;21.40;39.30;;;;;;5030521;28;20036;-76
2022/04/19 11:58:32;;;;;;;1.77;1.65;;;21.30;38.40;;;;;;5030949;28;20449;-77
2022/04/19 12:01:05;;;;;;;3.05;1.65;;;21.20;39.40;;;;;;5013734;28;20091;-76
2022/04/19 12:03:35;;;;;;;4.65;1.98;;;21.20;41.40;;;;;;5030411;28;20049;-76
2022/04/19 12:06:11;;;;;;;3.20;1.50;;;21.50;39.10;;;;;;5030748;28;20034;-76
2022/04/19 12:08:40;;;;;;;2.40;1.50;;;21.50;39.20;;;;;;5030311;28;20091;-77
2022/04/19 12:11:08;;;;;;;2.88;1.50;;;21.30;39.10;;;;;;5030708;28;20041;-76
2022/04/19 12:13:35;;;;;;;3.42;1.70;;;21.00;40.10;;;;;;5025971;28;20046;-77
2022/04/19 12:16:03;;;;;;;2.13;1.70;;;21.00;39.90;;;;;;5026466;28;20045;-76
2022/04/19 12:18:34;;;;;;;3.65;1.80;;;20.90;39.70;;;;;;5028083;28;20124;-77
2022/04/19 12:21:00;;;;;;;2.70;1.67;;;20.90;40.40;;;;;;5027980;28;20096;-76
2022/04/19 12:23:26;;;;;;;2.80;1.77;;;20.80;40.20;;;;;;5029405;28;20125;-76
2022/04/19 12:25:59;;;;;;;2.50;1.60;;;20.90;41.80;;;;;;5028215;28;20476;-76
2022/04/19 12:28:35;;;;;;;1.42;1.33;;;21.40;42.00;;;;;;5029864;28;20095;-76
2022/04/19 12:31:01;;;;;;;2.55;1.40;;;22.00;40.70;;;;;;5029224;28;20033;-77
2022/04/19 12:33:26;;;;;;;2.58;1.20;;;22.00;38.50;;;;;;5028096;28;20460;-77
2022/04/19 12:35:55;;;;;;;3.20;1.60;;;21.80;39.60;;;;;;5029480;28;20038;-76
2022/04/19 12:38:28;;;;;;;3.08;1.40;;;21.50;39.60;;;;;;5013743;28;20037;-76
2022/04/19 12:40:54;;;;;;;3.53;1.52;;;21.30;40.30;;;;;;5030194;28;20041;-75
2022/04/19 12:43:20;;;;;;;2.28;1.65;;;21.30;40.20;;;;;;5030323;28;20048;-76
2022/04/19 12:45:46;;;;;;;1.85;1.60;;;21.30;40.20;;;;;;5013918;28;20045;-77
2022/04/19 12:48:22;;;;;;;4.47;1.60;;;21.40;40.60;;;;;;5029923;28;20048;-76
2022/04/19 12:51:01;;;;;;;1.73;1.42;;;21.50;40.90;;;;;;5030076;28;20110;-76
2022/04/19 12:53:27;;;;;;;1.95;1.50;;;21.50;40.60;;;;;;5030441;28;20042;-77
2022/04/19 12:55:53;;;;;;;2.92;1.90;;;21.40;41.00;;;;;;5030164;28;20043;-76
2022/04/19 12:58:18;;;;;;;1.98;1.42;;;21.50;40.50;;;;;;5013390;28;20037;-77
2022/04/19 13:00:43;;;;;;;3.30;1.83;;;21.70;42.60;;;;;;5013938;28;20041;-77
2022/04/19 13:03:09;;;;;;;4.03;1.80;;;22.10;40.70;;;;;;5030112;28;20037;-76
2022/04/19 13:13:47;;;;;;;2.53;2.08;;;22.90;40.30;;;;;;5029238;28;20411;-76
2022/04/19 13:16:12;;;;;;;2.55;1.92;;;23.00;39.50;;;;;;5011597;28;20033;-76
2022/04/19 13:18:38;;;;;;;3.63;2.30;;;22.70;40.10;;;;;;5033371;28;20041;-76
2022/04/19 13:21:05;;;;;;;3.85;1.90;;;22.60;40.80;;;;;;5032606;28;20033;-77
2022/04/19 13:23:30;;;;;;;2.90;1.70;;;22.70;39.20;;;;;;5033403;28;20132;-77
2022/04/19 13:25:56;;;;;;;2.70;1.92;;;22.80;40.50;;;;;;5031741;28;20128;-76
2022/04/19 13:28:25;;;;;;;4.20;2.00;;;22.70;39.00;;;;;;5015916;28;20037;-76
2022/04/19 13:30:52;;;;;;;2.05;1.90;;;22.40;40.20;;;;;;5031443;28;20075;-77
2022/04/19 13:33:17;;;;;;;4.00;2.08;;;22.30;40.20;;;;;;5031855;28;20045;-76
2022/04/19 13:35:43;;;;;;;5.05;1.90;;;22.20;40.50;;;;;;5032969;28;20487;-77
2022/04/19 13:38:23;;;;;;;2.13;1.50;;;22.20;39.10;;;;;;5033131;28;20503;-77
2022/04/19 13:40:49;;;;;;;3.30;1.90;;;21.90;40.00;;;;;;5033122;28;20033;-77
2022/04/19 13:43:17;;;;;;;2.65;1.90;;;21.60;38.90;;;;;;5033235;28;20518;-76
2022/04/19 13:45:43;;;;;;;3.13;1.70;;;21.50;40.20;;;;;;5033348;28;20446;-77